sensor_id;sensor_type;location;lat;lon;timestamp;temperature;humidity
35607;DHT22;21729;58.392;15.656;2023-02-28T00:00:11;-0.90;99.90
35607;DHT22;21729;58.392;15.656;2023-02-28T00:02:40;-0.90;99.90
35607;DHT22;21729;58.392;15.656;2023-02-28T00:05:08;-1.00;99.90
35607;DHT22;21729;58.392;15.656;2023-02-28T00:07:38;-0.90;99.90
35607;DHT22;21729;58.392;15.656;2023-02-28T00:10:06;-1.00;99.90
35607;DHT22;21729;58.392;15.656;2023-02-28T00:12:34;-0.90;99.90
35607;DHT22;21729;58.392;15.656;2023-02-28T00:15:01;-0.90;99.90
35607;DHT22;21729;58.392;15.656;2023-02-28T00:17:29;-0.90;99.90
35607;DHT22;21729;58.392;15.656;2023-02-28T00:19:56;-0.90;99.90
35607;DHT22;21729;58.392;15.656;2023-02-28T00:22:27;-0.90;99.90
35607;DHT22;21729;58.392;15.656;2023-02-28T00:24:56;-0.90;99.90
35607;DHT22;21729;58.392;15.656;2023-02-28T00:27:23;-1.00;99.90
35607;DHT22;21729;58.392;15.656;2023-02-28T00:29:50;-1.00;99.90
35607;DHT22;21729;58.392;15.656;2023-02-28T00:32:19;-0.90;99.90
35607;DHT22;21729;58.392;15.656;2023-02-28T00:34:46;-0.90;99.90
35607;DHT22;21729;58.392;15.656;2023-02-28T00:37:13;-0.90;99.90
35607;DHT22;21729;58.392;15.656;2023-02-28T00:39:41;-0.90;99.90
35607;DHT22;21729;58.392;15.656;2023-02-28T00:42:09;-0.90;99.90
35607;DHT22;21729;58.392;15.656;2023-02-28T00:44:36;-0.80;99.90
35607;DHT22;21729;58.392;15.656;2023-02-28T00:47:04;-0.70;99.90
35607;DHT22;21729;58.392;15.656;2023-02-28T00:49:31;-0.50;99.90
35607;DHT22;21729;58.392;15.656;2023-02-28T00:51:58;-0.70;99.90
35607;DHT22;21729;58.392;15.656;2023-02-28T00:54:26;-0.70;99.90
35607;DHT22;21729;58.392;15.656;2023-02-28T00:56:53;-0.70;99.90
35607;DHT22;21729;58.392;15.656;2023-02-28T00:59:21;-0.70;99.90
35607;DHT22;21729;58.392;15.656;2023-02-28T01:01:48;-0.70;99.90
35607;DHT22;21729;58.392;15.656;2023-02-28T01:04:16;-0.70;99.90
35607;DHT22;21729;58.392;15.656;2023-02-28T01:06:43;-0.50;99.90
35607;DHT22;21729;58.392;15.656;2023-02-28T01:09:11;-0.60;99.90
35607;DHT22;21729;58.392;15.656;2023-02-28T01:11:38;-0.70;99.90
35607;DHT22;21729;58.392;15.656;2023-02-28T01:14:08;-0.70;99.90
35607;DHT22;21729;58.392;15.656;2023-02-28T01:16:36;-0.80;99.90
35607;DHT22;21729;58.392;15.656;2023-02-28T01:19:07;-0.70;99.90
35607;DHT22;21729;58.392;15.656;2023-02-28T01:21:34;-0.80;99.90
35607;DHT22;21729;58.392;15.656;2023-02-28T01:24:02;-0.80;99.90
35607;DHT22;21729;58.392;15.656;2023-02-28T01:26:30;-0.80;99.90
35607;DHT22;21729;58.392;15.656;2023-02-28T01:28:57;-0.60;99.90
35607;DHT22;21729;58.392;15.656;2023-02-28T01:31:24;-0.90;99.90
35607;DHT22;21729;58.392;15.656;2023-02-28T01:33:53;-0.60;99.90
35607;DHT22;21729;58.392;15.656;2023-02-28T01:36:21;-0.80;99.90
35607;DHT22;21729;58.392;15.656;2023-02-28T01:38:49;-0.80;99.90
35607;DHT22;21729;58.392;15.656;2023-02-28T01:41:19;-0.90;99.90
35607;DHT22;21729;58.392;15.656;2023-02-28T01:43:58;-0.90;99.90
35607;DHT22;21729;58.392;15.656;2023-02-28T01:46:28;-1.00;99.90
35607;DHT22;21729;58.392;15.656;2023-02-28T01:49:02;-0.90;99.90
35607;DHT22;21729;58.392;15.656;2023-02-28T01:51:34;-0.90;99.90
35607;DHT22;21729;58.392;15.656;2023-02-28T01:54:03;-1.00;99.90
35607;DHT22;21729;58.392;15.656;2023-02-28T01:56:34;-0.90;99.90
35607;DHT22;21729;58.392;15.656;2023-02-28T01:59:03;-0.90;99.90
35607;DHT22;21729;58.392;15.656;2023-02-28T02:01:31;-0.90;99.90
35607;DHT22;21729;58.392;15.656;2023-02-28T02:04:01;-0.60;99.90
35607;DHT22;21729;58.392;15.656;2023-02-28T02:06:34;-0.70;99.90
35607;DHT22;21729;58.392;15.656;2023-02-28T02:09:02;-0.90;99.90
35607;DHT22;21729;58.392;15.656;2023-02-28T02:11:30;-0.90;99.90
35607;DHT22;21729;58.392;15.656;2023-02-28T02:14:17;-0.60;99.90
35607;DHT22;21729;58.392;15.656;2023-02-28T02:17:02;-0.60;99.90
35607;DHT22;21729;58.392;15.656;2023-02-28T02:22:59;-0.80;99.90
35607;DHT22;21729;58.392;15.656;2023-02-28T02:25:36;-0.80;99.90
35607;DHT22;21729;58.392;15.656;2023-02-28T02:34:55;-0.90;99.90
35607;DHT22;21729;58.392;15.656;2023-02-28T02:37:31;-0.90;99.90
35607;DHT22;21729;58.392;15.656;2023-02-28T02:40:08;-0.60;99.90
35607;DHT22;21729;58.392;15.656;2023-02-28T02:42:43;-0.90;99.90
35607;DHT22;21729;58.392;15.656;2023-02-28T02:45:15;-1.00;99.90
35607;DHT22;21729;58.392;15.656;2023-02-28T02:47:45;-0.60;99.90
35607;DHT22;21729;58.392;15.656;2023-02-28T02:50:17;-0.80;99.90
35607;DHT22;21729;58.392;15.656;2023-02-28T02:52:50;-0.90;99.90
35607;DHT22;21729;58.392;15.656;2023-02-28T02:55:20;-0.90;99.90
35607;DHT22;21729;58.392;15.656;2023-02-28T02:57:52;-1.00;99.90
35607;DHT22;21729;58.392;15.656;2023-02-28T03:00:23;-1.10;99.90
35607;DHT22;21729;58.392;15.656;2023-02-28T03:02:52;-1.00;99.90
35607;DHT22;21729;58.392;15.656;2023-02-28T03:05:26;-0.90;99.90
35607;DHT22;21729;58.392;15.656;2023-02-28T03:07:54;-1.10;99.90
35607;DHT22;21729;58.392;15.656;2023-02-28T03:10:33;-1.10;99.90
35607;DHT22;21729;58.392;15.656;2023-02-28T03:16:15;-1.10;99.90
35607;DHT22;21729;58.392;15.656;2023-02-28T03:18:53;-1.20;99.90
35607;DHT22;21729;58.392;15.656;2023-02-28T03:21:27;-1.10;99.90
35607;DHT22;21729;58.392;15.656;2023-02-28T03:24:02;-1.20;99.90
35607;DHT22;21729;58.392;15.656;2023-02-28T03:26:31;-1.20;99.90
35607;DHT22;21729;58.392;15.656;2023-02-28T03:29:03;-1.10;99.90
35607;DHT22;21729;58.392;15.656;2023-02-28T03:31:35;-1.10;99.90
35607;DHT22;21729;58.392;15.656;2023-02-28T03:34:08;-1.10;99.90
35607;DHT22;21729;58.392;15.656;2023-02-28T03:36:39;-1.20;99.90
35607;DHT22;21729;58.392;15.656;2023-02-28T03:39:14;-1.00;99.90
35607;DHT22;21729;58.392;15.656;2023-02-28T03:41:45;-1.10;99.90
35607;DHT22;21729;58.392;15.656;2023-02-28T03:44:18;-0.70;99.90
35607;DHT22;21729;58.392;15.656;2023-02-28T03:46:49;-0.90;99.90
35607;DHT22;21729;58.392;15.656;2023-02-28T03:49:22;-0.90;99.90
35607;DHT22;21729;58.392;15.656;2023-02-28T03:51:52;-0.90;99.90
35607;DHT22;21729;58.392;15.656;2023-02-28T03:54:24;-0.90;99.90
35607;DHT22;21729;58.392;15.656;2023-02-28T03:56:56;-0.90;99.90
35607;DHT22;21729;58.392;15.656;2023-02-28T03:59:29;-1.00;99.90
35607;DHT22;21729;58.392;15.656;2023-02-28T04:01:57;-1.00;99.90
35607;DHT22;21729;58.392;15.656;2023-02-28T04:04:25;-0.70;99.90
35607;DHT22;21729;58.392;15.656;2023-02-28T04:07:01;-1.00;99.90
35607;DHT22;21729;58.392;15.656;2023-02-28T04:09:28;-1.10;99.90
35607;DHT22;21729;58.392;15.656;2023-02-28T04:11:56;-1.10;99.90
35607;DHT22;21729;58.392;15.656;2023-02-28T04:14:23;-0.80;99.90
35607;DHT22;21729;58.392;15.656;2023-02-28T04:16:50;-1.20;99.90
35607;DHT22;21729;58.392;15.656;2023-02-28T04:19:18;-1.30;99.90
35607;DHT22;21729;58.392;15.656;2023-02-28T04:21:47;-1.10;99.90
35607;DHT22;21729;58.392;15.656;2023-02-28T04:24:17;-0.80;99.90
35607;DHT22;21729;58.392;15.656;2023-02-28T04:26:46;-1.10;99.90
35607;DHT22;21729;58.392;15.656;2023-02-28T04:29:18;-1.00;99.90
35607;DHT22;21729;58.392;15.656;2023-02-28T04:31:45;-1.10;99.90
35607;DHT22;21729;58.392;15.656;2023-02-28T04:34:12;-1.20;99.90
35607;DHT22;21729;58.392;15.656;2023-02-28T04:36:40;-1.00;99.90
35607;DHT22;21729;58.392;15.656;2023-02-28T04:39:08;-1.20;99.90
35607;DHT22;21729;58.392;15.656;2023-02-28T04:41:37;-1.00;99.90
35607;DHT22;21729;58.392;15.656;2023-02-28T04:44:04;-0.80;99.90
35607;DHT22;21729;58.392;15.656;2023-02-28T04:46:31;-1.00;99.90
35607;DHT22;21729;58.392;15.656;2023-02-28T04:48:59;-1.00;99.90
35607;DHT22;21729;58.392;15.656;2023-02-28T04:51:26;-0.80;99.90
35607;DHT22;21729;58.392;15.656;2023-02-28T04:53:53;-0.90;99.90
35607;DHT22;21729;58.392;15.656;2023-02-28T04:56:21;-1.00;99.90
35607;DHT22;21729;58.392;15.656;2023-02-28T04:58:50;-1.00;99.90
35607;DHT22;21729;58.392;15.656;2023-02-28T05:01:21;-1.10;99.90
35607;DHT22;21729;58.392;15.656;2023-02-28T05:03:49;-1.10;99.90
35607;DHT22;21729;58.392;15.656;2023-02-28T05:06:17;-1.10;99.90
35607;DHT22;21729;58.392;15.656;2023-02-28T05:08:44;-1.10;99.90
35607;DHT22;21729;58.392;15.656;2023-02-28T05:11:16;-1.10;99.90
35607;DHT22;21729;58.392;15.656;2023-02-28T05:13:44;-1.10;99.90
35607;DHT22;21729;58.392;15.656;2023-02-28T05:16:13;-1.10;99.90
35607;DHT22;21729;58.392;15.656;2023-02-28T05:18:40;-1.30;99.90
35607;DHT22;21729;58.392;15.656;2023-02-28T05:21:26;-1.40;99.90
35607;DHT22;21729;58.392;15.656;2023-02-28T05:23:53;-1.40;99.90
35607;DHT22;21729;58.392;15.656;2023-02-28T05:26:21;-1.50;99.90
35607;DHT22;21729;58.392;15.656;2023-02-28T05:28:48;-1.50;99.90
35607;DHT22;21729;58.392;15.656;2023-02-28T05:31:17;-1.50;99.90
35607;DHT22;21729;58.392;15.656;2023-02-28T05:33:44;-1.40;99.90
35607;DHT22;21729;58.392;15.656;2023-02-28T05:36:11;-1.20;1.00
35607;DHT22;21729;58.392;15.656;2023-02-28T05:38:38;-0.80;99.90
35607;DHT22;21729;58.392;15.656;2023-02-28T05:41:06;-1.00;1.00
35607;DHT22;21729;58.392;15.656;2023-02-28T05:43:34;-1.10;99.90
35607;DHT22;21729;58.392;15.656;2023-02-28T05:46:03;-1.10;99.90
35607;DHT22;21729;58.392;15.656;2023-02-28T05:48:32;-1.10;99.90
35607;DHT22;21729;58.392;15.656;2023-02-28T05:51:00;-1.10;99.90
35607;DHT22;21729;58.392;15.656;2023-02-28T05:53:28;-1.00;99.90
35607;DHT22;21729;58.392;15.656;2023-02-28T05:55:55;-1.10;99.90
35607;DHT22;21729;58.392;15.656;2023-02-28T05:58:23;-1.00;99.90
35607;DHT22;21729;58.392;15.656;2023-02-28T06:00:51;-1.10;99.90
35607;DHT22;21729;58.392;15.656;2023-02-28T06:03:21;-1.10;99.90
35607;DHT22;21729;58.392;15.656;2023-02-28T06:05:50;-1.20;99.90
35607;DHT22;21729;58.392;15.656;2023-02-28T06:08:17;-1.20;99.90
35607;DHT22;21729;58.392;15.656;2023-02-28T06:10:45;-1.30;99.90
35607;DHT22;21729;58.392;15.656;2023-02-28T06:13:12;-1.40;99.90
35607;DHT22;21729;58.392;15.656;2023-02-28T06:15:40;-1.40;99.90
35607;DHT22;21729;58.392;15.656;2023-02-28T06:18:07;-1.40;99.90
35607;DHT22;21729;58.392;15.656;2023-02-28T06:20:34;-1.40;99.90
35607;DHT22;21729;58.392;15.656;2023-02-28T06:23:03;-1.50;99.90
35607;DHT22;21729;58.392;15.656;2023-02-28T06:25:30;-1.50;99.90
35607;DHT22;21729;58.392;15.656;2023-02-28T06:27:57;-1.50;99.90
35607;DHT22;21729;58.392;15.656;2023-02-28T06:30:24;-1.50;99.90
35607;DHT22;21729;58.392;15.656;2023-02-28T06:32:55;-1.60;99.90
35607;DHT22;21729;58.392;15.656;2023-02-28T06:35:22;-1.60;99.90
35607;DHT22;21729;58.392;15.656;2023-02-28T06:37:49;-1.50;99.90
35607;DHT22;21729;58.392;15.656;2023-02-28T06:40:18;-1.50;99.90
35607;DHT22;21729;58.392;15.656;2023-02-28T06:42:45;-1.40;1.00
35607;DHT22;21729;58.392;15.656;2023-02-28T06:45:13;-1.30;1.40
35607;DHT22;21729;58.392;15.656;2023-02-28T06:47:41;-1.70;1.00
35607;DHT22;21729;58.392;15.656;2023-02-28T06:50:12;-1.10;1.00
35607;DHT22;21729;58.392;15.656;2023-02-28T06:52:39;-1.00;1.00
35607;DHT22;21729;58.392;15.656;2023-02-28T06:55:07;-0.60;1.00
35607;DHT22;21729;58.392;15.656;2023-02-28T06:57:36;-0.30;1.00
35607;DHT22;21729;58.392;15.656;2023-02-28T07:00:07;0.00;99.90
35607;DHT22;21729;58.392;15.656;2023-02-28T07:02:34;-0.20;99.90
35607;DHT22;21729;58.392;15.656;2023-02-28T07:05:01;0.10;99.90
35607;DHT22;21729;58.392;15.656;2023-02-28T07:07:28;0.40;99.90
35607;DHT22;21729;58.392;15.656;2023-02-28T07:09:56;0.50;99.90
35607;DHT22;21729;58.392;15.656;2023-02-28T07:12:23;0.70;99.90
35607;DHT22;21729;58.392;15.656;2023-02-28T07:14:51;0.90;99.90
35607;DHT22;21729;58.392;15.656;2023-02-28T07:17:20;1.10;99.90
35607;DHT22;21729;58.392;15.656;2023-02-28T07:19:47;1.40;99.90
35607;DHT22;21729;58.392;15.656;2023-02-28T07:22:14;1.50;99.90
35607;DHT22;21729;58.392;15.656;2023-02-28T07:24:41;1.60;99.90
35607;DHT22;21729;58.392;15.656;2023-02-28T07:27:08;1.70;51.40
35607;DHT22;21729;58.392;15.656;2023-02-28T07:29:36;1.90;35.10
35607;DHT22;21729;58.392;15.656;2023-02-28T07:32:05;1.90;45.00
35607;DHT22;21729;58.392;15.656;2023-02-28T07:34:32;2.00;25.90
35607;DHT22;21729;58.392;15.656;2023-02-28T07:36:59;2.00;27.40
35607;DHT22;21729;58.392;15.656;2023-02-28T07:39:29;2.00;6.70
35607;DHT22;21729;58.392;15.656;2023-02-28T07:41:56;2.10;11.60
35607;DHT22;21729;58.392;15.656;2023-02-28T07:44:23;2.10;1.00
35607;DHT22;21729;58.392;15.656;2023-02-28T07:46:50;2.10;1.00
35607;DHT22;21729;58.392;15.656;2023-02-28T07:49:19;2.20;1.00
35607;DHT22;21729;58.392;15.656;2023-02-28T07:51:46;2.20;1.00
35607;DHT22;21729;58.392;15.656;2023-02-28T07:54:13;2.30;1.00
35607;DHT22;21729;58.392;15.656;2023-02-28T07:56:40;2.40;1.00
35607;DHT22;21729;58.392;15.656;2023-02-28T07:59:07;2.50;1.00
35607;DHT22;21729;58.392;15.656;2023-02-28T08:01:35;2.50;1.00
35607;DHT22;21729;58.392;15.656;2023-02-28T08:04:02;2.60;1.00
35607;DHT22;21729;58.392;15.656;2023-02-28T08:06:30;2.70;1.00
35607;DHT22;21729;58.392;15.656;2023-02-28T08:08:57;2.80;1.00
35607;DHT22;21729;58.392;15.656;2023-02-28T08:11:24;2.90;1.00
35607;DHT22;21729;58.392;15.656;2023-02-28T08:13:52;3.00;1.00
35607;DHT22;21729;58.392;15.656;2023-02-28T08:16:19;3.10;1.00
35607;DHT22;21729;58.392;15.656;2023-02-28T08:18:48;3.20;1.00
35607;DHT22;21729;58.392;15.656;2023-02-28T08:21:16;3.40;1.00
35607;DHT22;21729;58.392;15.656;2023-02-28T08:23:46;3.80;1.00
35607;DHT22;21729;58.392;15.656;2023-02-28T08:26:14;5.00;99.90
35607;DHT22;21729;58.392;15.656;2023-02-28T08:28:41;6.10;99.90
35607;DHT22;21729;58.392;15.656;2023-02-28T08:31:09;7.20;99.90
35607;DHT22;21729;58.392;15.656;2023-02-28T08:33:37;8.50;99.90
35607;DHT22;21729;58.392;15.656;2023-02-28T08:36:06;8.90;99.90
35607;DHT22;21729;58.392;15.656;2023-02-28T08:38:33;8.00;67.60
35607;DHT22;21729;58.392;15.656;2023-02-28T08:41:04;7.90;68.10
35607;DHT22;21729;58.392;15.656;2023-02-28T08:43:32;7.40;95.10
35607;DHT22;21729;58.392;15.656;2023-02-28T08:46:00;6.70;99.90
35607;DHT22;21729;58.392;15.656;2023-02-28T08:48:28;6.30;99.90
35607;DHT22;21729;58.392;15.656;2023-02-28T08:50:56;5.70;99.90
35607;DHT22;21729;58.392;15.656;2023-02-28T08:53:23;5.60;99.90
35607;DHT22;21729;58.392;15.656;2023-02-28T08:55:57;5.20;99.90
35607;DHT22;21729;58.392;15.656;2023-02-28T08:58:26;5.40;99.90
35607;DHT22;21729;58.392;15.656;2023-02-28T09:00:54;5.40;99.90
35607;DHT22;21729;58.392;15.656;2023-02-28T09:03:21;5.60;99.90
35607;DHT22;21729;58.392;15.656;2023-02-28T09:05:53;5.50;99.90
35607;DHT22;21729;58.392;15.656;2023-02-28T09:08:20;5.50;99.90
35607;DHT22;21729;58.392;15.656;2023-02-28T09:10:48;5.50;99.90
35607;DHT22;21729;58.392;15.656;2023-02-28T09:13:15;5.40;99.90
35607;DHT22;21729;58.392;15.656;2023-02-28T09:15:43;5.30;99.90
35607;DHT22;21729;58.392;15.656;2023-02-28T09:18:10;5.40;99.90
35607;DHT22;21729;58.392;15.656;2023-02-28T09:20:38;5.70;99.90
35607;DHT22;21729;58.392;15.656;2023-02-28T09:23:06;5.80;99.90
35607;DHT22;21729;58.392;15.656;2023-02-28T09:25:33;5.80;99.90
35607;DHT22;21729;58.392;15.656;2023-02-28T09:28:00;5.80;99.90
35607;DHT22;21729;58.392;15.656;2023-02-28T09:30:27;6.10;99.90
35607;DHT22;21729;58.392;15.656;2023-02-28T09:32:56;6.40;99.90
35607;DHT22;21729;58.392;15.656;2023-02-28T09:35:24;6.40;99.90
35607;DHT22;21729;58.392;15.656;2023-02-28T09:37:52;6.50;99.90
35607;DHT22;21729;58.392;15.656;2023-02-28T09:40:21;6.80;99.90
35607;DHT22;21729;58.392;15.656;2023-02-28T09:42:51;6.80;99.90
35607;DHT22;21729;58.392;15.656;2023-02-28T09:45:24;6.80;99.90
35607;DHT22;21729;58.392;15.656;2023-02-28T09:47:53;7.00;99.90
35607;DHT22;21729;58.392;15.656;2023-02-28T09:50:30;7.10;96.40
35607;DHT22;21729;58.392;15.656;2023-02-28T09:53:03;7.20;82.70
35607;DHT22;21729;58.392;15.656;2023-02-28T09:55:35;7.50;82.40
35607;DHT22;21729;58.392;15.656;2023-02-28T09:58:03;7.80;88.20
35607;DHT22;21729;58.392;15.656;2023-02-28T10:00:33;7.80;57.40
35607;DHT22;21729;58.392;15.656;2023-02-28T10:06:09;8.20;49.30
35607;DHT22;21729;58.392;15.656;2023-02-28T10:08:42;8.60;43.80
35607;DHT22;21729;58.392;15.656;2023-02-28T10:11:15;8.50;7.00
35607;DHT22;21729;58.392;15.656;2023-02-28T10:13:51;9.00;1.00
35607;DHT22;21729;58.392;15.656;2023-02-28T10:16:25;9.00;1.00
35607;DHT22;21729;58.392;15.656;2023-02-28T10:18:57;9.40;1.00
35607;DHT22;21729;58.392;15.656;2023-02-28T10:21:29;9.80;1.00
35607;DHT22;21729;58.392;15.656;2023-02-28T10:24:03;10.30;1.00
35607;DHT22;21729;58.392;15.656;2023-02-28T10:26:32;10.20;1.00
35607;DHT22;21729;58.392;15.656;2023-02-28T10:29:00;10.50;1.00
35607;DHT22;21729;58.392;15.656;2023-02-28T10:31:28;10.70;1.00
35607;DHT22;21729;58.392;15.656;2023-02-28T10:33:55;11.10;1.00
35607;DHT22;21729;58.392;15.656;2023-02-28T10:36:22;10.30;1.00
35607;DHT22;21729;58.392;15.656;2023-02-28T10:38:51;9.10;1.00
35607;DHT22;21729;58.392;15.656;2023-02-28T10:41:28;8.40;1.00
35607;DHT22;21729;58.392;15.656;2023-02-28T10:44:19;8.20;1.00
35607;DHT22;21729;58.392;15.656;2023-02-28T10:46:48;8.00;1.00
35607;DHT22;21729;58.392;15.656;2023-02-28T10:49:20;7.80;1.00
35607;DHT22;21729;58.392;15.656;2023-02-28T10:51:50;7.70;1.00
35607;DHT22;21729;58.392;15.656;2023-02-28T10:54:23;7.80;18.90
35607;DHT22;21729;58.392;15.656;2023-02-28T10:57:17;7.60;12.50
35607;DHT22;21729;58.392;15.656;2023-02-28T10:59:45;7.50;37.60
35607;DHT22;21729;58.392;15.656;2023-02-28T11:02:32;7.50;24.00
35607;DHT22;21729;58.392;15.656;2023-02-28T11:04:59;7.40;28.00
35607;DHT22;21729;58.392;15.656;2023-02-28T11:07:26;7.40;38.30
35607;DHT22;21729;58.392;15.656;2023-02-28T11:09:57;7.30;46.40
35607;DHT22;21729;58.392;15.656;2023-02-28T11:12:27;7.40;57.80
35607;DHT22;21729;58.392;15.656;2023-02-28T11:14:57;7.40;32.90
35607;DHT22;21729;58.392;15.656;2023-02-28T11:17:27;7.40;36.20
35607;DHT22;21729;58.392;15.656;2023-02-28T11:19:57;7.40;36.10
35607;DHT22;21729;58.392;15.656;2023-02-28T11:22:27;7.40;34.30
35607;DHT22;21729;58.392;15.656;2023-02-28T11:24:59;7.50;21.10
35607;DHT22;21729;58.392;15.656;2023-02-28T11:27:45;7.70;45.50
35607;DHT22;21729;58.392;15.656;2023-02-28T11:30:36;7.80;20.30
35607;DHT22;21729;58.392;15.656;2023-02-28T11:33:26;7.80;24.90
35607;DHT22;21729;58.392;15.656;2023-02-28T11:35:57;7.90;7.50
35607;DHT22;21729;58.392;15.656;2023-02-28T11:38:26;8.00;27.30
35607;DHT22;21729;58.392;15.656;2023-02-28T11:41:09;8.20;2.40
35607;DHT22;21729;58.392;15.656;2023-02-28T11:43:57;8.30;1.00
35607;DHT22;21729;58.392;15.656;2023-02-28T11:46:33;8.30;1.00
35607;DHT22;21729;58.392;15.656;2023-02-28T11:49:06;8.50;4.10
35607;DHT22;21729;58.392;15.656;2023-02-28T11:51:47;8.60;1.00
35607;DHT22;21729;58.392;15.656;2023-02-28T11:54:27;8.50;1.00
35607;DHT22;21729;58.392;15.656;2023-02-28T11:56:59;8.50;1.00
35607;DHT22;21729;58.392;15.656;2023-02-28T11:59:47;8.50;1.00
35607;DHT22;21729;58.392;15.656;2023-02-28T12:02:26;8.60;1.00
35607;DHT22;21729;58.392;15.656;2023-02-28T12:05:10;8.50;1.00
35607;DHT22;21729;58.392;15.656;2023-02-28T12:07:50;8.50;7.40
35607;DHT22;21729;58.392;15.656;2023-02-28T12:10:23;8.50;12.30
35607;DHT22;21729;58.392;15.656;2023-02-28T12:13:01;8.70;10.70
35607;DHT22;21729;58.392;15.656;2023-02-28T12:15:52;8.60;8.10
35607;DHT22;21729;58.392;15.656;2023-02-28T12:18:31;8.60;5.90
35607;DHT22;21729;58.392;15.656;2023-02-28T12:21:07;8.60;1.00
35607;DHT22;21729;58.392;15.656;2023-02-28T12:23:56;8.60;8.40
35607;DHT22;21729;58.392;15.656;2023-02-28T12:26:35;8.70;1.00
35607;DHT22;21729;58.392;15.656;2023-02-28T12:29:19;8.70;1.20
35607;DHT22;21729;58.392;15.656;2023-02-28T12:31:52;8.70;1.00
35607;DHT22;21729;58.392;15.656;2023-02-28T12:34:24;8.50;1.00
35607;DHT22;21729;58.392;15.656;2023-02-28T12:36:54;8.40;1.00
35607;DHT22;21729;58.392;15.656;2023-02-28T12:39:26;8.50;1.00
35607;DHT22;21729;58.392;15.656;2023-02-28T12:41:55;8.60;12.60
35607;DHT22;21729;58.392;15.656;2023-02-28T12:44:30;8.70;1.00
35607;DHT22;21729;58.392;15.656;2023-02-28T12:47:01;8.60;8.00
35607;DHT22;21729;58.392;15.656;2023-02-28T12:49:34;8.50;1.00
35607;DHT22;21729;58.392;15.656;2023-02-28T12:52:05;8.60;7.50
35607;DHT22;21729;58.392;15.656;2023-02-28T12:54:42;8.60;1.00
35607;DHT22;21729;58.392;15.656;2023-02-28T12:57:13;8.50;1.00
35607;DHT22;21729;58.392;15.656;2023-02-28T12:59:48;8.40;6.50
35607;DHT22;21729;58.392;15.656;2023-02-28T13:02:33;8.30;17.60
35607;DHT22;21729;58.392;15.656;2023-02-28T13:05:39;8.40;24.30
35607;DHT22;21729;58.392;15.656;2023-02-28T13:11:25;8.10;41.30
35607;DHT22;21729;58.392;15.656;2023-02-28T13:13:58;8.00;35.00
35607;DHT22;21729;58.392;15.656;2023-02-28T13:16:27;7.90;45.80
35607;DHT22;21729;58.392;15.656;2023-02-28T13:19:09;7.90;56.20
35607;DHT22;21729;58.392;15.656;2023-02-28T13:21:43;7.80;55.00
35607;DHT22;21729;58.392;15.656;2023-02-28T13:24:11;7.80;53.60
35607;DHT22;21729;58.392;15.656;2023-02-28T13:29:53;7.80;38.40
35607;DHT22;21729;58.392;15.656;2023-02-28T13:32:36;7.80;38.60
35607;DHT22;21729;58.392;15.656;2023-02-28T13:35:38;7.70;36.60
35607;DHT22;21729;58.392;15.656;2023-02-28T13:38:22;7.60;38.50
35607;DHT22;21729;58.392;15.656;2023-02-28T13:40:50;7.50;41.50
35607;DHT22;21729;58.392;15.656;2023-02-28T13:43:18;7.50;47.40
35607;DHT22;21729;58.392;15.656;2023-02-28T13:46:08;7.40;87.80
35607;DHT22;21729;58.392;15.656;2023-02-28T13:48:38;7.40;82.10
35607;DHT22;21729;58.392;15.656;2023-02-28T13:51:28;7.30;99.90
35607;DHT22;21729;58.392;15.656;2023-02-28T13:54:12;7.40;74.00
35607;DHT22;21729;58.392;15.656;2023-02-28T13:56:46;7.40;87.50
35607;DHT22;21729;58.392;15.656;2023-02-28T13:59:23;7.40;59.40
35607;DHT22;21729;58.392;15.656;2023-02-28T14:02:03;7.30;76.40
35607;DHT22;21729;58.392;15.656;2023-02-28T14:05:04;7.30;58.20
35607;DHT22;21729;58.392;15.656;2023-02-28T14:07:37;7.20;94.00
35607;DHT22;21729;58.392;15.656;2023-02-28T14:10:07;7.20;87.90
35607;DHT22;21729;58.392;15.656;2023-02-28T14:13:12;7.20;75.60
35607;DHT22;21729;58.392;15.656;2023-02-28T14:15:55;7.20;78.60
35607;DHT22;21729;58.392;15.656;2023-02-28T14:18:25;7.20;99.90
35607;DHT22;21729;58.392;15.656;2023-02-28T14:21:01;7.20;85.50
35607;DHT22;21729;58.392;15.656;2023-02-28T14:26:35;7.20;75.80
35607;DHT22;21729;58.392;15.656;2023-02-28T14:29:26;7.30;73.50
35607;DHT22;21729;58.392;15.656;2023-02-28T14:32:01;7.30;54.60
35607;DHT22;21729;58.392;15.656;2023-02-28T14:34:40;7.30;67.70
35607;DHT22;21729;58.392;15.656;2023-02-28T14:37:14;7.20;70.40
35607;DHT22;21729;58.392;15.656;2023-02-28T14:39:43;7.30;60.80
35607;DHT22;21729;58.392;15.656;2023-02-28T14:42:29;7.30;63.40
35607;DHT22;21729;58.392;15.656;2023-02-28T14:44:56;7.30;74.20
35607;DHT22;21729;58.392;15.656;2023-02-28T14:47:26;7.40;51.90
35607;DHT22;21729;58.392;15.656;2023-02-28T14:49:54;7.40;82.50
35607;DHT22;21729;58.392;15.656;2023-02-28T14:52:23;7.40;60.00
35607;DHT22;21729;58.392;15.656;2023-02-28T14:54:54;7.40;69.10
35607;DHT22;21729;58.392;15.656;2023-02-28T14:57:24;7.40;75.70
35607;DHT22;21729;58.392;15.656;2023-02-28T15:00:00;7.20;84.70
35607;DHT22;21729;58.392;15.656;2023-02-28T15:02:31;7.20;86.70
35607;DHT22;21729;58.392;15.656;2023-02-28T15:04:59;7.10;99.90
35607;DHT22;21729;58.392;15.656;2023-02-28T15:07:28;7.10;99.90
35607;DHT22;21729;58.392;15.656;2023-02-28T15:10:16;7.00;99.90
35607;DHT22;21729;58.392;15.656;2023-02-28T15:12:51;6.90;99.90
35607;DHT22;21729;58.392;15.656;2023-02-28T15:15:20;6.90;99.90
35607;DHT22;21729;58.392;15.656;2023-02-28T15:17:51;6.80;99.90
35607;DHT22;21729;58.392;15.656;2023-02-28T15:20:20;6.70;99.90
35607;DHT22;21729;58.392;15.656;2023-02-28T15:22:51;6.60;99.90
35607;DHT22;21729;58.392;15.656;2023-02-28T15:25:20;6.50;99.90
35607;DHT22;21729;58.392;15.656;2023-02-28T15:27:50;6.50;99.90
35607;DHT22;21729;58.392;15.656;2023-02-28T15:30:19;6.40;99.90
35607;DHT22;21729;58.392;15.656;2023-02-28T15:33:06;6.40;99.90
35607;DHT22;21729;58.392;15.656;2023-02-28T15:35:37;6.30;99.90
35607;DHT22;21729;58.392;15.656;2023-02-28T15:38:15;6.30;99.90
35607;DHT22;21729;58.392;15.656;2023-02-28T15:40:43;6.20;99.90
35607;DHT22;21729;58.392;15.656;2023-02-28T15:43:15;6.10;99.90
35607;DHT22;21729;58.392;15.656;2023-02-28T15:45:46;6.10;99.90
35607;DHT22;21729;58.392;15.656;2023-02-28T15:48:17;5.90;99.90
35607;DHT22;21729;58.392;15.656;2023-02-28T15:50:48;5.90;99.90
35607;DHT22;21729;58.392;15.656;2023-02-28T15:53:20;5.80;99.90
35607;DHT22;21729;58.392;15.656;2023-02-28T15:55:54;5.80;99.90
35607;DHT22;21729;58.392;15.656;2023-02-28T15:58:22;5.70;99.90
35607;DHT22;21729;58.392;15.656;2023-02-28T16:01:04;5.70;99.90
35607;DHT22;21729;58.392;15.656;2023-02-28T16:03:41;5.60;99.90
35607;DHT22;21729;58.392;15.656;2023-02-28T16:09:12;5.40;99.90
35607;DHT22;21729;58.392;15.656;2023-02-28T16:11:42;5.30;99.90
35607;DHT22;21729;58.392;15.656;2023-02-28T16:14:15;5.20;99.90
35607;DHT22;21729;58.392;15.656;2023-02-28T16:16:43;5.20;99.90
35607;DHT22;21729;58.392;15.656;2023-02-28T16:19:11;5.10;99.90
35607;DHT22;21729;58.392;15.656;2023-02-28T16:21:38;5.00;99.90